createdAt,value
2022-07-29T00:01:01.977Z,1.80
2022-07-29T00:03:28.492Z,1.75
2022-07-29T00:05:54.985Z,2.05
2022-07-29T00:08:21.706Z,2.08
2022-07-29T00:10:48.560Z,1.00
2022-07-29T00:13:15.190Z,0.68
2022-07-29T00:15:41.787Z,1.75
2022-07-29T00:18:08.631Z,4.63
2022-07-29T00:20:35.083Z,1.88
2022-07-29T00:23:01.740Z,1.33
2022-07-29T00:25:28.281Z,1.05
2022-07-29T00:27:54.765Z,2.38
2022-07-29T00:30:21.342Z,3.45
2022-07-29T00:32:47.779Z,0.82
2022-07-29T00:35:32.984Z,0.98
2022-07-29T00:38:00.098Z,1.15
2022-07-29T00:40:28.726Z,1.58
2022-07-29T00:42:55.297Z,1.58
2022-07-29T00:45:23.149Z,0.70
2022-07-29T00:47:49.813Z,1.92
2022-07-29T00:50:16.436Z,2.03
2022-07-29T00:52:44.032Z,0.85
2022-07-29T00:55:15.288Z,0.98
2022-07-29T00:57:43.213Z,2.95
2022-07-29T01:00:15.474Z,1.20
2022-07-29T01:02:41.963Z,3.40
2022-07-29T01:05:08.876Z,1.10
2022-07-29T01:07:37.061Z,0.60
2022-07-29T01:10:08.782Z,1.88
2022-07-29T01:12:36.659Z,1.38
2022-07-29T01:15:05.749Z,0.50
2022-07-29T01:17:52.591Z,1.23
2022-07-29T01:20:51.715Z,0.70
2022-07-29T01:23:39.439Z,1.75
2022-07-29T01:26:33.769Z,1.40
2022-07-29T01:29:12.178Z,0.52
2022-07-29T01:32:00.565Z,1.70
2022-07-29T01:34:44.867Z,1.27
2022-07-29T01:37:50.983Z,1.33
2022-07-29T01:40:25.138Z,1.60
2022-07-29T01:45:29.451Z,2.25
2022-07-29T01:48:10.006Z,1.65
2022-07-29T01:50:41.392Z,1.40
2022-07-29T01:53:11.461Z,1.48
2022-07-29T01:55:43.083Z,1.55
2022-07-29T01:58:11.776Z,1.52
2022-07-29T02:00:40.083Z,1.20
2022-07-29T02:03:12.644Z,1.20
2022-07-29T02:05:41.339Z,1.02
2022-07-29T02:08:09.180Z,1.10
2022-07-29T02:10:37.412Z,2.17
2022-07-29T02:13:05.173Z,1.67
2022-07-29T02:15:33.960Z,1.35
2022-07-29T02:18:13.936Z,0.90
2022-07-29T02:20:43.980Z,1.27
2022-07-29T02:23:13.732Z,1.13
2022-07-29T02:25:43.017Z,0.85
2022-07-29T02:28:09.848Z,0.75
2022-07-29T02:30:41.668Z,0.88
2022-07-29T02:33:11.034Z,1.42
2022-07-29T02:35:38.919Z,0.52
2022-07-29T02:38:24.539Z,0.93
2022-07-29T02:40:52.792Z,1.20
2022-07-29T02:43:22.008Z,2.60
2022-07-29T02:45:53.775Z,1.00
2022-07-29T02:48:26.886Z,2.35
2022-07-29T02:51:02.650Z,0.93
2022-07-29T02:53:34.158Z,1.38
2022-07-29T02:56:05.326Z,1.02
2022-07-29T02:58:34.427Z,1.27
2022-07-29T03:01:05.099Z,0.75
2022-07-29T03:03:38.629Z,1.83
2022-07-29T03:06:06.791Z,0.80
2022-07-29T03:08:33.942Z,0.63
2022-07-29T03:11:01.942Z,0.88
2022-07-29T03:13:29.095Z,1.08
2022-07-29T03:15:56.352Z,2.30
2022-07-29T03:18:23.104Z,0.50
2022-07-29T03:20:49.674Z,0.50
2022-07-29T03:23:21.017Z,1.33
2022-07-29T03:25:47.795Z,1.90
2022-07-29T03:28:14.333Z,0.60
2022-07-29T03:30:44.532Z,1.30
2022-07-29T03:33:13.785Z,1.02
2022-07-29T03:35:40.822Z,1.85
2022-07-29T03:38:07.900Z,1.90
2022-07-29T03:40:43.585Z,1.08
2022-07-29T03:43:11.902Z,3.05
2022-07-29T03:45:39.956Z,1.38
2022-07-29T03:48:13.655Z,0.60
2022-07-29T03:50:40.675Z,1.40
2022-07-29T03:53:07.253Z,1.23
2022-07-29T03:55:41.026Z,0.45
2022-07-29T03:58:09.027Z,0.60
2022-07-29T04:00:37.384Z,0.75
2022-07-29T04:03:05.187Z,0.93
2022-07-29T04:05:37.464Z,1.45
2022-07-29T04:08:04.020Z,0.80
2022-07-29T04:10:32.195Z,0.88
2022-07-29T04:13:00.833Z,3.03
2022-07-29T04:15:31.403Z,0.52
2022-07-29T04:17:58.590Z,1.67
2022-07-29T04:20:25.190Z,0.80
2022-07-29T04:22:51.636Z,0.45
2022-07-29T04:25:18.269Z,0.50
2022-07-29T04:28:01.121Z,3.60
2022-07-29T04:30:27.940Z,0.57
2022-07-29T04:32:54.381Z,2.67
2022-07-29T04:35:21.189Z,0.90
2022-07-29T04:37:47.724Z,1.00
2022-07-29T04:40:14.262Z,1.42
2022-07-29T04:42:46.294Z,0.30
2022-07-29T04:45:13.483Z,1.13
2022-07-29T04:47:40.952Z,2.83
2022-07-29T04:50:08.836Z,1.45
2022-07-29T04:52:36.221Z,0.82
2022-07-29T04:55:04.129Z,2.50
2022-07-29T04:57:30.680Z,1.75
2022-07-29T04:59:57.209Z,0.47
2022-07-29T05:02:23.753Z,0.90
2022-07-29T05:04:50.282Z,1.80
2022-07-29T05:07:16.868Z,1.08
2022-07-29T05:09:43.322Z,2.92
2022-07-29T05:12:10.638Z,1.88
2022-07-29T05:14:37.115Z,0.60
2022-07-29T05:17:03.757Z,3.22
2022-07-29T05:19:30.272Z,1.05
2022-07-29T05:21:56.753Z,1.65
2022-07-29T05:24:23.217Z,1.65
2022-07-29T05:26:49.731Z,2.80
2022-07-29T05:29:42.466Z,1.20
2022-07-29T05:32:03.313Z,3.83
2022-07-29T05:34:29.871Z,0.80
2022-07-29T05:36:56.394Z,0.70
2022-07-29T05:39:48.960Z,1.40
2022-07-29T05:42:11.151Z,0.80
2022-07-29T05:44:39.031Z,1.95
2022-07-29T05:47:06.075Z,1.27
2022-07-29T05:49:32.596Z,2.22
2022-07-29T05:51:59.231Z,4.88
2022-07-29T05:54:26.654Z,0.60
2022-07-29T05:56:53.172Z,3.28
2022-07-29T05:59:19.638Z,1.20
2022-07-29T06:01:46.159Z,2.45
2022-07-29T06:04:12.854Z,1.45
2022-07-29T06:06:39.430Z,0.85
2022-07-29T06:09:12.089Z,1.17
2022-07-29T06:11:39.124Z,4.43
2022-07-29T06:14:05.608Z,2.22
2022-07-29T06:16:32.160Z,2.00
2022-07-29T06:18:58.671Z,1.90
2022-07-29T06:21:25.185Z,1.65
2022-07-29T06:23:51.743Z,2.95
2022-07-29T06:26:18.170Z,1.75
2022-07-29T06:28:44.694Z,8.20
2022-07-29T06:31:11.282Z,7.75
2022-07-29T06:33:37.838Z,8.90
2022-07-29T06:36:06.485Z,10.43
2022-07-29T06:38:34.496Z,14.57
2022-07-29T06:41:13.145Z,10.93
2022-07-29T06:43:52.402Z,9.82
2022-07-29T06:46:23.743Z,11.50
2022-07-29T06:48:51.433Z,14.10
2022-07-29T06:51:22.283Z,12.85
2022-07-29T06:53:59.075Z,17.50
2022-07-29T06:56:29.404Z,10.43
2022-07-29T06:58:55.925Z,11.63
2022-07-29T07:01:22.847Z,10.88
2022-07-29T07:03:49.574Z,13.10
2022-07-29T07:06:16.125Z,13.88
2022-07-29T07:08:42.637Z,13.32
2022-07-29T07:11:09.633Z,10.02
2022-07-29T07:13:36.855Z,11.15
2022-07-29T07:16:04.709Z,16.58
2022-07-29T07:18:31.526Z,11.90
2022-07-29T07:20:58.232Z,10.63
2022-07-29T07:23:24.956Z,10.32
2022-07-29T07:25:52.100Z,10.50
2022-07-29T07:28:19.296Z,13.65
2022-07-29T07:30:52.009Z,12.00
2022-07-29T07:33:18.520Z,8.60
2022-07-29T07:35:45.315Z,11.15
2022-07-29T07:38:11.921Z,9.27
2022-07-29T07:40:38.549Z,17.30
2022-07-29T07:43:05.313Z,7.95
2022-07-29T07:45:33.917Z,16.30
2022-07-29T07:48:01.002Z,11.98
2022-07-29T07:50:27.753Z,9.70
2022-07-29T07:52:58.727Z,14.57
2022-07-29T07:55:26.497Z,9.10
2022-07-29T07:57:53.350Z,11.75
2022-07-29T08:00:19.913Z,11.73
2022-07-29T08:02:50.891Z,9.93
2022-07-29T08:05:20.211Z,9.48
2022-07-29T08:07:47.716Z,10.13
2022-07-29T08:10:36.812Z,7.75
2022-07-29T08:13:05.714Z,6.57
2022-07-29T08:15:32.955Z,7.93
2022-07-29T08:17:59.639Z,7.68
2022-07-29T08:20:26.253Z,7.07
2022-07-29T08:22:54.485Z,9.65
2022-07-29T08:25:21.557Z,9.63
2022-07-29T08:27:48.609Z,10.35
2022-07-29T08:30:16.330Z,6.28
2022-07-29T08:32:53.819Z,9.20
2022-07-29T08:35:22.423Z,7.07
2022-07-29T08:37:48.984Z,9.57
2022-07-29T08:40:15.638Z,8.68
2022-07-29T08:42:42.164Z,8.05
2022-07-29T08:45:09.347Z,5.88
2022-07-29T08:47:40.385Z,5.85
2022-07-29T08:50:09.034Z,8.80
2022-07-29T08:52:40.696Z,7.57
2022-07-29T08:55:08.748Z,7.30
2022-07-29T08:57:37.126Z,7.78
2022-07-29T09:00:11.507Z,6.75
2022-07-29T09:02:46.804Z,7.45
2022-07-29T09:05:14.824Z,4.40
2022-07-29T09:07:44.150Z,6.00
2022-07-29T09:10:11.151Z,6.45
2022-07-29T09:12:38.290Z,5.35
2022-07-29T09:15:05.268Z,5.82
2022-07-29T09:17:49.591Z,5.80
2022-07-29T09:20:18.398Z,3.95
2022-07-29T09:22:50.066Z,5.90
2022-07-29T09:25:42.345Z,6.10
2022-07-29T09:28:13.633Z,6.28
2022-07-29T09:30:52.133Z,3.83
2022-07-29T09:33:18.662Z,7.57
2022-07-29T09:35:57.156Z,4.00
2022-07-29T09:38:23.704Z,5.68
2022-07-29T09:41:05.862Z,4.65
2022-07-29T09:43:33.546Z,7.53
2022-07-29T09:46:13.504Z,3.47
2022-07-29T09:48:40.556Z,4.75
2022-07-29T09:51:20.664Z,4.18
2022-07-29T09:53:49.047Z,5.22
2022-07-29T09:56:15.520Z,4.53
2022-07-29T09:58:41.970Z,3.95
2022-07-29T10:01:08.532Z,4.75
2022-07-29T10:03:51.553Z,6.80
2022-07-29T10:06:18.074Z,4.43
2022-07-29T10:08:44.564Z,3.03
2022-07-29T10:11:16.730Z,5.43
2022-07-29T10:13:47.577Z,4.88
2022-07-29T10:16:15.904Z,3.97
2022-07-29T10:18:44.770Z,3.70
2022-07-29T10:21:22.519Z,3.13
2022-07-29T10:24:01.273Z,3.75
2022-07-29T10:26:29.147Z,3.83
2022-07-29T10:28:56.689Z,4.47
2022-07-29T10:31:36.336Z,3.22
2022-07-29T10:34:28.768Z,3.20
2022-07-29T10:37:13.672Z,4.32
2022-07-29T10:39:53.438Z,3.55
2022-07-29T10:42:33.635Z,6.00
2022-07-29T10:45:01.751Z,4.68
2022-07-29T10:47:28.764Z,3.03
2022-07-29T10:49:59.165Z,3.55
2022-07-29T10:52:57.966Z,2.47
2022-07-29T10:55:39.381Z,2.38
2022-07-29T10:58:27.388Z,3.03
2022-07-29T11:00:56.355Z,3.13
2022-07-29T11:03:49.390Z,2.67
2022-07-29T11:06:16.807Z,3.13
2022-07-29T11:08:44.603Z,3.50
2022-07-29T11:14:14.869Z,4.47
2022-07-29T11:17:17.381Z,1.90
2022-07-29T11:19:49.307Z,2.20
2022-07-29T11:22:36.724Z,2.17
2022-07-29T11:25:43.003Z,2.70
2022-07-29T11:28:22.409Z,2.35
2022-07-29T11:30:53.393Z,2.63
2022-07-29T11:33:37.513Z,2.65
2022-07-29T11:36:19.454Z,2.03
2022-07-29T11:39:36.409Z,2.22
2022-07-29T11:42:32.238Z,1.98
2022-07-29T11:45:44.187Z,2.47
2022-07-29T11:48:27.991Z,4.22
2022-07-29T11:50:48.495Z,1.73
2022-07-29T11:53:16.286Z,1.80
2022-07-29T11:55:51.527Z,2.47
2022-07-29T11:58:25.140Z,2.58
2022-07-29T12:00:53.175Z,1.98
2022-07-29T12:03:35.479Z,1.73
2022-07-29T12:06:18.329Z,1.52
2022-07-29T12:08:45.707Z,1.85
2022-07-29T12:11:21.851Z,2.35
2022-07-29T12:13:49.941Z,1.60
2022-07-29T12:16:16.601Z,2.85
2022-07-29T12:19:02.115Z,1.80
2022-07-29T12:21:29.754Z,1.55
2022-07-29T12:24:01.896Z,2.42
2022-07-29T12:26:32.479Z,2.15
2022-07-29T12:29:02.380Z,2.25
2022-07-29T12:31:42.071Z,1.50
2022-07-29T12:34:09.259Z,1.55
2022-07-29T12:36:36.415Z,2.05
2022-07-29T12:39:03.585Z,1.63
2022-07-29T12:41:30.776Z,2.28
2022-07-29T12:43:57.343Z,1.98
2022-07-29T12:46:23.920Z,1.70
2022-07-29T12:48:55.969Z,2.40
2022-07-29T12:51:29.932Z,1.90
2022-07-29T12:54:14.475Z,1.90
2022-07-29T12:56:43.636Z,1.58
2022-07-29T12:59:16.336Z,1.50
2022-07-29T13:01:43.017Z,1.48
2022-07-29T13:04:09.565Z,1.27
2022-07-29T13:06:41.856Z,2.25
2022-07-29T13:09:11.832Z,1.50
2022-07-29T13:11:48.217Z,1.48
2022-07-29T13:14:45.238Z,1.35
2022-07-29T13:17:17.005Z,1.27
2022-07-29T13:19:44.811Z,1.75
2022-07-29T13:22:16.264Z,2.05
2022-07-29T13:24:51.293Z,1.77
2022-07-29T13:27:19.929Z,1.77
2022-07-29T13:29:47.347Z,2.00
2022-07-29T13:32:14.139Z,2.13
2022-07-29T13:34:41.616Z,1.02
2022-07-29T13:37:08.079Z,1.50
2022-07-29T13:39:34.668Z,1.20
2022-07-29T13:42:01.616Z,1.73
2022-07-29T13:44:28.214Z,1.00
2022-07-29T13:46:54.679Z,2.45
2022-07-29T13:49:21.223Z,1.65
2022-07-29T13:51:47.784Z,2.00
2022-07-29T13:54:14.252Z,1.10
2022-07-29T13:56:40.691Z,1.08
2022-07-29T13:59:07.152Z,1.58
2022-07-29T14:01:33.669Z,2.17
2022-07-29T14:04:00.323Z,1.50
2022-07-29T14:06:27.445Z,1.27
2022-07-29T14:08:56.552Z,1.33
2022-07-29T14:11:23.046Z,2.78
2022-07-29T14:13:49.522Z,1.38
2022-07-29T14:16:16.032Z,0.98
2022-07-29T14:18:42.699Z,1.30
2022-07-29T14:21:09.700Z,1.75
2022-07-29T14:23:37.385Z,1.70
2022-07-29T14:26:08.883Z,0.73
2022-07-29T14:28:41.949Z,1.35
2022-07-29T14:31:08.606Z,1.13
2022-07-29T14:33:35.068Z,1.75
2022-07-29T14:36:01.790Z,1.40
2022-07-29T14:38:28.377Z,0.80
2022-07-29T14:40:54.857Z,0.98
2022-07-29T14:43:21.319Z,1.65
2022-07-29T14:45:48.371Z,0.80
2022-07-29T14:48:14.960Z,1.05
2022-07-29T14:50:41.431Z,1.33
2022-07-29T14:53:07.939Z,0.90
2022-07-29T14:55:34.447Z,0.85
2022-07-29T14:58:09.671Z,1.25
2022-07-29T15:00:37.823Z,0.85
2022-07-29T15:03:05.070Z,3.88
2022-07-29T15:05:32.232Z,0.63
2022-07-29T15:08:00.276Z,1.10
2022-07-29T15:10:29.936Z,1.45
2022-07-29T15:12:57.138Z,1.58
2022-07-29T15:15:23.744Z,2.80
2022-07-29T15:17:50.195Z,2.08
2022-07-29T15:20:16.663Z,5.53
2022-07-29T15:22:43.948Z,3.70
2022-07-29T15:25:10.823Z,2.20
2022-07-29T15:27:37.322Z,2.65
2022-07-29T15:30:04.191Z,1.25
2022-07-29T15:32:30.651Z,3.67
2022-07-29T15:34:57.095Z,6.50
2022-07-29T15:37:23.539Z,3.08
2022-07-29T15:39:50.350Z,6.60
2022-07-29T15:42:17.817Z,2.42
2022-07-29T15:44:44.444Z,1.80
2022-07-29T15:47:10.935Z,3.15
2022-07-29T15:49:46.433Z,3.22
2022-07-29T15:52:25.408Z,2.67
2022-07-29T15:54:56.667Z,1.15
2022-07-29T15:57:24.676Z,2.40
2022-07-29T15:59:51.900Z,3.03
2022-07-29T16:02:18.455Z,1.48
2022-07-29T16:04:44.931Z,5.82
2022-07-29T16:07:11.415Z,1.88
2022-07-29T16:09:37.870Z,3.97
2022-07-29T16:12:10.585Z,1.83
2022-07-29T16:14:42.531Z,6.72
2022-07-29T16:17:09.031Z,3.03
2022-07-29T16:19:41.124Z,4.20
2022-07-29T16:22:07.575Z,3.10
2022-07-29T16:24:34.044Z,3.17
2022-07-29T16:27:01.030Z,1.10
2022-07-29T16:29:27.832Z,3.05
2022-07-29T16:31:54.455Z,1.73
2022-07-29T16:34:21.075Z,3.60
2022-07-29T16:36:48.067Z,3.75
2022-07-29T16:39:14.650Z,5.65
2022-07-29T16:41:41.089Z,9.10
2022-07-29T16:44:07.771Z,3.25
2022-07-29T16:46:37.282Z,4.35
2022-07-29T16:49:05.659Z,7.05
2022-07-29T16:51:34.799Z,1.85
2022-07-29T16:54:01.251Z,3.45
2022-07-29T16:56:27.676Z,5.22
2022-07-29T16:58:54.203Z,2.10
2022-07-29T17:01:20.837Z,4.93
2022-07-29T17:04:07.207Z,2.35
2022-07-29T17:06:38.839Z,2.83
2022-07-29T17:09:06.804Z,3.03
2022-07-29T17:11:52.554Z,5.80
2022-07-29T17:14:24.006Z,2.50
2022-07-29T17:16:51.824Z,3.60
2022-07-29T17:19:30.279Z,3.38
2022-07-29T17:22:06.784Z,9.18
2022-07-29T17:24:37.221Z,2.00
2022-07-29T17:27:04.896Z,4.78
2022-07-29T17:29:31.578Z,3.85
2022-07-29T17:31:59.514Z,2.50
2022-07-29T17:34:26.240Z,2.55
2022-07-29T17:36:52.941Z,6.00
2022-07-29T17:39:19.419Z,2.50
2022-07-29T17:41:46.834Z,3.03
2022-07-29T17:44:13.596Z,4.25
2022-07-29T17:46:40.520Z,1.17
2022-07-29T17:49:07.366Z,1.35
2022-07-29T17:51:33.953Z,1.30
2022-07-29T17:54:00.427Z,1.98
2022-07-29T17:56:26.891Z,1.17
2022-07-29T17:58:53.492Z,1.88
2022-07-29T18:01:20.113Z,1.38
2022-07-29T18:03:47.068Z,2.40
2022-07-29T18:06:13.626Z,2.10
2022-07-29T18:08:40.464Z,4.93
2022-07-29T18:11:07.016Z,1.52
2022-07-29T18:13:33.626Z,2.15
2022-07-29T18:16:00.950Z,3.58
2022-07-29T18:18:27.865Z,4.03
2022-07-29T18:20:54.875Z,2.10
2022-07-29T18:23:21.399Z,4.40
2022-07-29T18:25:47.944Z,4.47
2022-07-29T18:28:14.674Z,3.17
2022-07-29T18:30:41.848Z,3.50
2022-07-29T18:33:21.697Z,4.40
2022-07-29T18:35:50.188Z,2.17
2022-07-29T18:38:17.041Z,2.35
2022-07-29T18:40:45.448Z,2.85
2022-07-29T18:43:12.699Z,6.10
2022-07-29T18:45:39.631Z,1.55
2022-07-29T18:48:08.407Z,1.98
2022-07-29T18:50:39.561Z,16.37
2022-07-29T18:53:06.166Z,2.20
2022-07-29T18:55:32.823Z,3.58
2022-07-29T18:57:59.563Z,1.48
2022-07-29T19:00:27.065Z,5.53
2022-07-29T19:02:53.898Z,3.53
2022-07-29T19:05:20.664Z,1.77
2022-07-29T19:07:47.108Z,3.00
2022-07-29T19:10:13.822Z,5.88
2022-07-29T19:12:40.421Z,12.07
2022-07-29T19:15:08.040Z,2.38
2022-07-29T19:17:34.553Z,5.97
2022-07-29T19:20:01.068Z,1.98
2022-07-29T19:22:27.785Z,3.13
2022-07-29T19:24:54.430Z,3.58
2022-07-29T19:27:20.900Z,2.10
2022-07-29T19:29:47.486Z,2.10
2022-07-29T19:32:14.524Z,6.28
2022-07-29T19:35:10.076Z,1.70
2022-07-29T19:37:37.377Z,2.40
2022-07-29T19:40:04.902Z,1.17
2022-07-29T19:42:31.419Z,2.05
2022-07-29T19:44:57.882Z,1.83
2022-07-29T19:47:24.371Z,3.08
2022-07-29T19:49:50.831Z,2.45
2022-07-29T19:52:17.303Z,2.22
2022-07-29T19:54:43.747Z,1.98
2022-07-29T19:57:10.252Z,3.47
2022-07-29T19:59:37.254Z,1.50
2022-07-29T20:02:04.280Z,1.55
2022-07-29T20:04:30.810Z,2.92
2022-07-29T20:07:01.236Z,1.98
2022-07-29T20:09:28.286Z,2.47
2022-07-29T20:11:54.821Z,1.67
2022-07-29T20:14:21.567Z,1.58
2022-07-29T20:16:48.090Z,1.50
2022-07-29T20:19:14.820Z,2.22
2022-07-29T20:21:41.278Z,1.67
2022-07-29T20:24:08.661Z,1.60
2022-07-29T20:26:35.102Z,2.50
2022-07-29T20:29:05.020Z,1.40
2022-07-29T20:31:32.422Z,1.50
2022-07-29T20:33:59.131Z,3.13
2022-07-29T20:36:25.614Z,2.45
2022-07-29T20:38:52.079Z,1.40
2022-07-29T20:41:18.511Z,3.72
2022-07-29T20:43:45.486Z,2.08
2022-07-29T20:46:12.097Z,2.72
2022-07-29T20:48:39.953Z,3.95
2022-07-29T20:51:06.611Z,4.32
2022-07-29T20:53:33.799Z,1.95
2022-07-29T20:56:00.299Z,2.80
2022-07-29T20:58:26.901Z,3.35
2022-07-29T21:00:53.476Z,2.55
2022-07-29T21:03:19.903Z,1.77
2022-07-29T21:05:46.483Z,1.73
2022-07-29T21:08:13.034Z,2.28
2022-07-29T21:10:39.620Z,2.78
2022-07-29T21:13:06.082Z,1.38
2022-07-29T21:15:32.728Z,5.28
2022-07-29T21:18:09.206Z,2.85
2022-07-29T21:20:35.684Z,1.58
2022-07-29T21:23:02.107Z,1.27
2022-07-29T21:25:28.700Z,2.60
2022-07-29T21:28:14.951Z,1.33
2022-07-29T21:30:41.900Z,15.95
2022-07-29T21:33:08.373Z,2.40
2022-07-29T21:36:06.949Z,2.33
2022-07-29T21:38:21.647Z,1.40
2022-07-29T21:40:50.246Z,2.95
2022-07-29T21:43:17.560Z,4.35
2022-07-29T21:45:50.216Z,3.85
2022-07-29T21:48:18.175Z,2.35
2022-07-29T21:50:44.767Z,5.88
2022-07-29T21:53:11.448Z,3.38
2022-07-29T21:55:41.606Z,2.60
2022-07-29T21:58:08.443Z,3.25
2022-07-29T22:00:35.060Z,2.33
2022-07-29T22:03:03.664Z,3.33
2022-07-29T22:05:31.395Z,4.13
2022-07-29T22:07:58.587Z,2.33
2022-07-29T22:10:26.710Z,4.45
2022-07-29T22:12:54.916Z,2.78
2022-07-29T22:15:22.326Z,2.38
2022-07-29T22:17:48.983Z,4.22
2022-07-29T22:20:15.648Z,1.67
2022-07-29T22:22:42.227Z,4.68
2022-07-29T22:25:09.762Z,3.20
2022-07-29T22:27:36.727Z,1.67
2022-07-29T22:30:07.480Z,1.98
2022-07-29T22:32:34.070Z,1.77
2022-07-29T22:35:00.524Z,1.23
2022-07-29T22:37:27.022Z,1.50
2022-07-29T22:39:53.488Z,2.60
2022-07-29T22:42:20.022Z,0.95
2022-07-29T22:44:46.457Z,3.88
2022-07-29T22:47:12.912Z,2.85
2022-07-29T22:49:39.371Z,4.90
2022-07-29T22:52:06.495Z,2.05
2022-07-29T22:54:32.989Z,2.00
2022-07-29T22:57:01.114Z,1.10
2022-07-29T22:59:27.873Z,1.73
2022-07-29T23:01:54.486Z,3.35
2022-07-29T23:04:23.804Z,1.30
2022-07-29T23:06:51.130Z,1.40
2022-07-29T23:09:17.909Z,2.17
2022-07-29T23:11:44.616Z,3.63
2022-07-29T23:14:11.031Z,1.83
2022-07-29T23:16:37.843Z,2.30
2022-07-29T23:19:04.356Z,1.30
2022-07-29T23:21:31.326Z,1.33
2022-07-29T23:23:57.838Z,2.50
2022-07-29T23:26:24.303Z,1.27
2022-07-29T23:28:50.851Z,1.15
2022-07-29T23:31:17.423Z,1.75
2022-07-29T23:33:43.891Z,1.30
2022-07-29T23:36:10.475Z,1.30
2022-07-29T23:38:40.930Z,4.97
2022-07-29T23:41:09.718Z,1.92
2022-07-29T23:43:37.168Z,1.33
2022-07-29T23:46:03.928Z,1.75
2022-07-29T23:48:31.908Z,1.30
2022-07-29T23:50:58.870Z,1.90
2022-07-29T23:53:25.294Z,1.73
2022-07-29T23:55:51.727Z,2.60
2022-07-29T23:58:18.151Z,1.42
